METAR Data
IDs: Format: Raw Decoded Include TAF

Data at: 2220 UTC 02 Aug 2021

EGVN 022150Z 08003KT 9999 FEW032 SCT090 BKN140 13/12 Q1014 NOSIG RMK BLACKBLU BLU